KLVNKALO

Guest
Details From KLVN - AIRLAKE
To KALO - WATERLOO RGNL
Flight Number -
Tags generated
Created
Modified
Stats Distance 130 nm / 240 km
Max Altitude 15,300 ft / 4,663 m
Waypoints 3
Social Downloads 0
Likes 0
Share VATSIM

Download

Looking for another format? Having issues loading an existing format? Contact us
Advertisement - Login to hide

Notes

Basic altitude profile: - Ascent Rate: 3000ft/min - Ascent Speed: 250kts - Cruise Altitude: 20000ft - Cruise Speed: 300kts - Descent Rate: 2500ft/min - Descent Speed: 175kts Options: - Use NATs: yes - Use PACOTS: yes - Use low airways: yes - Use high airways: yes

Route

KLVN ZOLET KALO

ID Type Via Altitude Latitude Longitude Leg Dist Tot Dist Heading (true) Name
O KLVN APT - 0 ft / 0 m 44.62786˚ -93.22810˚ - 0 nm - AIRLAKE
ZOLET FIX - 15,300 ft / 4,663 m 43.75778˚ -92.96331˚ 53 nm 53 nm 168° / 168° -
O KALO APT - 0 ft / 0 m 42.55671˚ -92.40038˚ 76 nm 129 nm 161° / 161° WATERLOO RGNL

Altitude Profile

Advertisement - Login to hide

KLVN

Details ICAO KLVN
Name AIRLAKE
Region United States
Timezone America/Chicago (UTC-6.0)
Stats Elevation 960 ft / 293 m (AMSL)
Location 44.627858° -93.228097°
Runways 1
Magnetic Variation 0.218° E

METAR

KLVN 161055Z AUTO 06004KT 5SM BR SCT100 M04/M04 A2967 RMK AO2

Decode

TAF

Not found

Departure Runways

ID Width Length Bearing (true) Bearing (mag) Surface Threshold Offset Overrun Length
12 75 ft / 23 m 4,091 ft / 1,247 m 117.50° 117.28° Asphalt 0 ft / 0 m 0 ft / 0 m
30 75 ft / 23 m 4,091 ft / 1,247 m 297.51° 297.29° Asphalt 391 ft / 119 m 0 ft / 0 m

KALO

Details ICAO KALO (ALO)
Name WATERLOO RGNL
Region United States
Timezone America/Chicago (UTC-6.0)
Stats Elevation 873 ft / 266 m (AMSL)
Location 42.556708° -92.400376°
Runways 3
Magnetic Variation 0.234° W

METAR

KALO 161054Z AUTO 22005KT 10SM CLR M02/M06 A2971 RMK AO2 SLP069 T10221061

Decode

TAF

KALO 160539Z 1606/1706 19007KT P6SM BKN120 FM161800 VRB05KT P6SM BKN150

Decode

Destination Runways

ID Width Length Bearing (true) Bearing (mag) Surface Threshold Offset Overrun Length
06 129 ft / 39 m 5,393 ft / 1,644 m 67.71° 67.94° Asphalt 0 ft / 0 m 0 ft / 0 m
12 150 ft / 46 m 8,392 ft / 2,558 m 127.88° 128.11° Asphalt 0 ft / 0 m 0 ft / 0 m
18 150 ft / 46 m 6,009 ft / 1,832 m 187.76° 187.99° Asphalt 0 ft / 0 m 0 ft / 0 m
24 129 ft / 39 m 5,393 ft / 1,644 m 247.73° 247.96° Asphalt 0 ft / 0 m 0 ft / 0 m
30 150 ft / 46 m 8,392 ft / 2,558 m 307.89° 308.12° Asphalt 0 ft / 0 m 0 ft / 0 m
36 150 ft / 46 m 6,009 ft / 1,832 m 7.76° 7.99° Asphalt 0 ft / 0 m 0 ft / 0 m

Approach Navaids

Runway Type Ident Frequency Range Bearing (true) Bearing (mag) Slope Elevation
12 Localiser IALO 111.70 MHz 18 nm / 33 km 127.91° 128.14° - 873 ft / 266 m (AMSL)
12 Glidescope IALO 111.70 MHz 10 nm / 19 km 127.88° 128.12° 3.00° 872 ft / 266 m (AMSL)